sensor_id;sensor_type;location;lat;lon;timestamp;P1;durP1;ratioP1;P2;durP2;ratioP2
19842;SDS011;10082;51.038;6.992;2022-12-07T00:00:53;28.50;;;25.23;;
19842;SDS011;10082;51.038;6.992;2022-12-07T00:03:20;27.33;;;24.43;;
19842;SDS011;10082;51.038;6.992;2022-12-07T00:05:47;26.43;;;23.40;;
19842;SDS011;10082;51.038;6.992;2022-12-07T00:08:13;26.27;;;23.47;;
19842;SDS011;10082;51.038;6.992;2022-12-07T00:10:40;26.43;;;23.73;;
19842;SDS011;10082;51.038;6.992;2022-12-07T00:13:09;27.27;;;24.37;;
19842;SDS011;10082;51.038;6.992;2022-12-07T00:15:36;28.03;;;24.30;;
19842;SDS011;10082;51.038;6.992;2022-12-07T00:18:02;27.40;;;24.50;;
19842;SDS011;10082;51.038;6.992;2022-12-07T00:20:29;27.40;;;24.50;;
19842;SDS011;10082;51.038;6.992;2022-12-07T00:22:56;28.00;;;24.50;;
19842;SDS011;10082;51.038;6.992;2022-12-07T00:25:23;28.00;;;24.53;;
19842;SDS011;10082;51.038;6.992;2022-12-07T00:27:50;30.10;;;25.50;;
19842;SDS011;10082;51.038;6.992;2022-12-07T00:30:20;28.30;;;25.27;;
19842;SDS011;10082;51.038;6.992;2022-12-07T00:32:47;27.53;;;24.70;;
19842;SDS011;10082;51.038;6.992;2022-12-07T00:35:13;27.57;;;24.47;;
19842;SDS011;10082;51.038;6.992;2022-12-07T00:37:40;27.30;;;24.30;;
19842;SDS011;10082;51.038;6.992;2022-12-07T00:40:08;28.27;;;24.57;;
19842;SDS011;10082;51.038;6.992;2022-12-07T00:42:35;26.30;;;23.60;;
19842;SDS011;10082;51.038;6.992;2022-12-07T00:45:02;26.80;;;23.90;;
19842;SDS011;10082;51.038;6.992;2022-12-07T00:47:31;28.70;;;25.60;;
19842;SDS011;10082;51.038;6.992;2022-12-07T00:49:58;26.73;;;24.00;;
19842;SDS011;10082;51.038;6.992;2022-12-07T00:52:25;26.80;;;24.03;;
19842;SDS011;10082;51.038;6.992;2022-12-07T00:54:52;26.10;;;23.53;;
19842;SDS011;10082;51.038;6.992;2022-12-07T00:57:19;26.87;;;24.13;;
19842;SDS011;10082;51.038;6.992;2022-12-07T00:59:46;26.57;;;23.70;;
19842;SDS011;10082;51.038;6.992;2022-12-07T01:02:13;25.47;;;22.87;;
19842;SDS011;10082;51.038;6.992;2022-12-07T01:04:41;25.67;;;23.07;;
19842;SDS011;10082;51.038;6.992;2022-12-07T01:07:08;25.47;;;22.80;;
19842;SDS011;10082;51.038;6.992;2022-12-07T01:09:35;25.70;;;22.87;;
19842;SDS011;10082;51.038;6.992;2022-12-07T01:12:02;24.67;;;22.27;;
19842;SDS011;10082;51.038;6.992;2022-12-07T01:14:29;25.90;;;22.80;;
19842;SDS011;10082;51.038;6.992;2022-12-07T01:16:56;27.37;;;22.97;;
19842;SDS011;10082;51.038;6.992;2022-12-07T01:19:23;25.13;;;22.53;;
19842;SDS011;10082;51.038;6.992;2022-12-07T01:21:51;25.30;;;22.73;;
19842;SDS011;10082;51.038;6.992;2022-12-07T01:24:18;25.53;;;22.83;;
19842;SDS011;10082;51.038;6.992;2022-12-07T01:26:45;24.63;;;22.07;;
19842;SDS011;10082;51.038;6.992;2022-12-07T01:29:15;25.00;;;22.43;;
19842;SDS011;10082;51.038;6.992;2022-12-07T01:31:42;26.07;;;23.37;;
19842;SDS011;10082;51.038;6.992;2022-12-07T01:34:09;27.63;;;24.73;;
19842;SDS011;10082;51.038;6.992;2022-12-07T01:36:36;26.80;;;23.87;;
19842;SDS011;10082;51.038;6.992;2022-12-07T01:39:05;27.33;;;24.57;;
19842;SDS011;10082;51.038;6.992;2022-12-07T01:41:34;26.93;;;24.13;;
19842;SDS011;10082;51.038;6.992;2022-12-07T01:44:11;28.43;;;25.53;;
19842;SDS011;10082;51.038;6.992;2022-12-07T01:46:44;27.77;;;24.87;;
19842;SDS011;10082;51.038;6.992;2022-12-07T01:49:14;28.43;;;25.60;;
19842;SDS011;10082;51.038;6.992;2022-12-07T01:51:45;29.10;;;26.10;;
19842;SDS011;10082;51.038;6.992;2022-12-07T01:54:15;30.03;;;26.83;;
19842;SDS011;10082;51.038;6.992;2022-12-07T01:56:45;28.83;;;25.93;;
19842;SDS011;10082;51.038;6.992;2022-12-07T01:59:16;28.80;;;25.87;;
19842;SDS011;10082;51.038;6.992;2022-12-07T02:01:46;29.87;;;26.77;;
19842;SDS011;10082;51.038;6.992;2022-12-07T02:04:13;30.93;;;27.63;;
19842;SDS011;10082;51.038;6.992;2022-12-07T02:06:41;30.13;;;27.00;;
19842;SDS011;10082;51.038;6.992;2022-12-07T02:09:09;30.50;;;27.23;;
19842;SDS011;10082;51.038;6.992;2022-12-07T02:11:38;30.27;;;26.07;;
19842;SDS011;10082;51.038;6.992;2022-12-07T02:14:06;30.33;;;27.13;;
19842;SDS011;10082;51.038;6.992;2022-12-07T02:16:34;30.70;;;27.43;;
19842;SDS011;10082;51.038;6.992;2022-12-07T02:19:18;29.27;;;25.87;;
19842;SDS011;10082;51.038;6.992;2022-12-07T02:22:09;29.57;;;26.17;;
19842;SDS011;10082;51.038;6.992;2022-12-07T02:24:52;29.23;;;26.20;;
19842;SDS011;10082;51.038;6.992;2022-12-07T02:30:13;31.47;;;28.03;;
19842;SDS011;10082;51.038;6.992;2022-12-07T02:32:44;29.40;;;26.20;;
19842;SDS011;10082;51.038;6.992;2022-12-07T02:35:19;30.60;;;26.80;;
19842;SDS011;10082;51.038;6.992;2022-12-07T02:37:52;30.70;;;27.13;;
19842;SDS011;10082;51.038;6.992;2022-12-07T02:40:27;31.37;;;28.00;;
19842;SDS011;10082;51.038;6.992;2022-12-07T02:43:03;30.20;;;27.07;;
19842;SDS011;10082;51.038;6.992;2022-12-07T02:45:34;31.60;;;28.20;;
19842;SDS011;10082;51.038;6.992;2022-12-07T02:48:03;32.23;;;27.80;;
19842;SDS011;10082;51.038;6.992;2022-12-07T02:50:32;29.63;;;26.47;;
19842;SDS011;10082;51.038;6.992;2022-12-07T02:52:59;32.33;;;28.83;;
19842;SDS011;10082;51.038;6.992;2022-12-07T02:55:28;32.50;;;29.00;;
19842;SDS011;10082;51.038;6.992;2022-12-07T02:58:11;33.13;;;29.70;;
19842;SDS011;10082;51.038;6.992;2022-12-07T03:00:54;34.57;;;30.83;;
19842;SDS011;10082;51.038;6.992;2022-12-07T03:03:28;34.67;;;31.00;;
19842;SDS011;10082;51.038;6.992;2022-12-07T03:06:02;34.70;;;30.23;;
19842;SDS011;10082;51.038;6.992;2022-12-07T03:08:43;33.30;;;29.67;;
19842;SDS011;10082;51.038;6.992;2022-12-07T03:11:19;33.53;;;29.93;;
19842;SDS011;10082;51.038;6.992;2022-12-07T03:13:52;33.83;;;30.27;;
19842;SDS011;10082;51.038;6.992;2022-12-07T03:16:27;35.83;;;31.93;;
19842;SDS011;10082;51.038;6.992;2022-12-07T03:18:58;36.33;;;31.17;;
19842;SDS011;10082;51.038;6.992;2022-12-07T03:21:31;34.93;;;31.43;;
19842;SDS011;10082;51.038;6.992;2022-12-07T03:24:04;35.83;;;31.93;;
19842;SDS011;10082;51.038;6.992;2022-12-07T03:26:36;33.80;;;30.03;;
19842;SDS011;10082;51.038;6.992;2022-12-07T03:29:11;33.07;;;29.77;;
19842;SDS011;10082;51.038;6.992;2022-12-07T03:31:45;34.97;;;31.23;;
19842;SDS011;10082;51.038;6.992;2022-12-07T03:34:17;33.37;;;29.87;;
19842;SDS011;10082;51.038;6.992;2022-12-07T03:36:52;33.50;;;30.00;;
19842;SDS011;10082;51.038;6.992;2022-12-07T03:39:34;33.60;;;30.10;;
19842;SDS011;10082;51.038;6.992;2022-12-07T03:42:05;32.37;;;28.97;;
19842;SDS011;10082;51.038;6.992;2022-12-07T03:44:35;31.80;;;28.47;;
19842;SDS011;10082;51.038;6.992;2022-12-07T03:47:05;31.87;;;28.47;;
19842;SDS011;10082;51.038;6.992;2022-12-07T03:49:40;30.47;;;27.23;;
19842;SDS011;10082;51.038;6.992;2022-12-07T03:52:12;30.97;;;27.90;;
19842;SDS011;10082;51.038;6.992;2022-12-07T03:54:47;30.67;;;27.50;;
19842;SDS011;10082;51.038;6.992;2022-12-07T03:57:18;30.80;;;27.77;;
19842;SDS011;10082;51.038;6.992;2022-12-07T03:59:48;31.00;;;27.73;;
19842;SDS011;10082;51.038;6.992;2022-12-07T04:02:19;29.83;;;26.73;;
19842;SDS011;10082;51.038;6.992;2022-12-07T04:04:47;32.27;;;29.03;;
19842;SDS011;10082;51.038;6.992;2022-12-07T04:07:14;31.20;;;28.00;;
19842;SDS011;10082;51.038;6.992;2022-12-07T04:09:41;31.87;;;28.57;;
19842;SDS011;10082;51.038;6.992;2022-12-07T04:12:08;32.03;;;28.73;;
19842;SDS011;10082;51.038;6.992;2022-12-07T04:14:35;32.43;;;27.33;;
19842;SDS011;10082;51.038;6.992;2022-12-07T04:17:02;30.47;;;27.37;;
19842;SDS011;10082;51.038;6.992;2022-12-07T04:19:31;31.37;;;27.30;;
19842;SDS011;10082;51.038;6.992;2022-12-07T04:22:00;31.47;;;28.27;;
19842;SDS011;10082;51.038;6.992;2022-12-07T04:24:28;32.53;;;29.10;;
19842;SDS011;10082;51.038;6.992;2022-12-07T04:26:55;30.33;;;27.10;;
19842;SDS011;10082;51.038;6.992;2022-12-07T04:29:22;31.97;;;28.63;;
19842;SDS011;10082;51.038;6.992;2022-12-07T04:31:50;31.03;;;27.83;;
19842;SDS011;10082;51.038;6.992;2022-12-07T04:34:17;31.53;;;28.13;;
19842;SDS011;10082;51.038;6.992;2022-12-07T04:36:46;31.17;;;27.93;;
19842;SDS011;10082;51.038;6.992;2022-12-07T04:39:17;31.43;;;28.13;;
19842;SDS011;10082;51.038;6.992;2022-12-07T04:41:46;32.50;;;28.47;;
19842;SDS011;10082;51.038;6.992;2022-12-07T04:44:14;32.57;;;28.50;;
19842;SDS011;10082;51.038;6.992;2022-12-07T04:46:42;33.50;;;30.20;;
19842;SDS011;10082;51.038;6.992;2022-12-07T04:49:09;31.67;;;28.37;;
19842;SDS011;10082;51.038;6.992;2022-12-07T04:51:36;32.13;;;28.93;;
19842;SDS011;10082;51.038;6.992;2022-12-07T04:54:04;31.47;;;28.27;;
19842;SDS011;10082;51.038;6.992;2022-12-07T04:56:32;31.93;;;28.53;;
19842;SDS011;10082;51.038;6.992;2022-12-07T04:59:00;31.03;;;27.63;;
19842;SDS011;10082;51.038;6.992;2022-12-07T05:01:29;31.20;;;28.03;;
19842;SDS011;10082;51.038;6.992;2022-12-07T05:03:56;32.73;;;28.10;;
19842;SDS011;10082;51.038;6.992;2022-12-07T05:06:23;31.83;;;28.53;;
19842;SDS011;10082;51.038;6.992;2022-12-07T05:08:50;33.43;;;29.43;;
19842;SDS011;10082;51.038;6.992;2022-12-07T05:11:18;32.60;;;29.20;;
19842;SDS011;10082;51.038;6.992;2022-12-07T05:14:04;32.07;;;28.70;;
19842;SDS011;10082;51.038;6.992;2022-12-07T05:16:32;32.43;;;29.13;;
19842;SDS011;10082;51.038;6.992;2022-12-07T05:19:00;32.77;;;29.33;;
19842;SDS011;10082;51.038;6.992;2022-12-07T05:21:27;31.30;;;28.03;;
19842;SDS011;10082;51.038;6.992;2022-12-07T05:23:55;30.70;;;27.60;;
19842;SDS011;10082;51.038;6.992;2022-12-07T05:26:23;31.13;;;27.90;;
19842;SDS011;10082;51.038;6.992;2022-12-07T05:28:51;31.60;;;28.20;;
19842;SDS011;10082;51.038;6.992;2022-12-07T05:31:18;31.73;;;28.53;;
19842;SDS011;10082;51.038;6.992;2022-12-07T05:33:45;31.43;;;28.13;;
19842;SDS011;10082;51.038;6.992;2022-12-07T05:36:13;31.23;;;27.93;;
19842;SDS011;10082;51.038;6.992;2022-12-07T05:38:40;32.20;;;28.90;;
19842;SDS011;10082;51.038;6.992;2022-12-07T05:41:08;31.40;;;28.07;;
19842;SDS011;10082;51.038;6.992;2022-12-07T05:44:00;32.13;;;28.73;;
19842;SDS011;10082;51.038;6.992;2022-12-07T05:46:27;32.67;;;28.77;;
19842;SDS011;10082;51.038;6.992;2022-12-07T05:48:54;29.83;;;26.87;;
19842;SDS011;10082;51.038;6.992;2022-12-07T05:51:21;30.40;;;27.30;;
19842;SDS011;10082;51.038;6.992;2022-12-07T05:53:48;29.20;;;26.37;;
19842;SDS011;10082;51.038;6.992;2022-12-07T05:56:16;28.20;;;25.27;;
19842;SDS011;10082;51.038;6.992;2022-12-07T05:58:42;27.80;;;24.93;;
19842;SDS011;10082;51.038;6.992;2022-12-07T06:01:28;27.93;;;24.80;;
19842;SDS011;10082;51.038;6.992;2022-12-07T06:03:55;27.40;;;24.50;;
19842;SDS011;10082;51.038;6.992;2022-12-07T06:06:22;27.60;;;24.53;;
19842;SDS011;10082;51.038;6.992;2022-12-07T06:08:49;29.30;;;24.07;;
19842;SDS011;10082;51.038;6.992;2022-12-07T06:11:16;26.20;;;23.63;;
19842;SDS011;10082;51.038;6.992;2022-12-07T06:14:12;26.17;;;23.27;;
19842;SDS011;10082;51.038;6.992;2022-12-07T06:16:41;26.10;;;23.40;;
19842;SDS011;10082;51.038;6.992;2022-12-07T06:19:08;26.70;;;23.83;;
19842;SDS011;10082;51.038;6.992;2022-12-07T06:21:36;27.87;;;23.33;;
19842;SDS011;10082;51.038;6.992;2022-12-07T06:24:03;25.40;;;22.80;;
19842;SDS011;10082;51.038;6.992;2022-12-07T06:26:31;26.97;;;23.20;;
19842;SDS011;10082;51.038;6.992;2022-12-07T06:28:58;27.17;;;24.23;;
19842;SDS011;10082;51.038;6.992;2022-12-07T06:31:25;28.83;;;24.30;;
19842;SDS011;10082;51.038;6.992;2022-12-07T06:33:57;27.00;;;24.07;;
19842;SDS011;10082;51.038;6.992;2022-12-07T06:36:25;25.60;;;22.90;;
19842;SDS011;10082;51.038;6.992;2022-12-07T06:38:52;27.90;;;24.90;;
19842;SDS011;10082;51.038;6.992;2022-12-07T06:41:20;27.63;;;24.70;;
19842;SDS011;10082;51.038;6.992;2022-12-07T06:43:47;28.30;;;24.17;;
19842;SDS011;10082;51.038;6.992;2022-12-07T06:46:14;27.73;;;24.80;;
19842;SDS011;10082;51.038;6.992;2022-12-07T06:48:41;26.67;;;23.83;;
19842;SDS011;10082;51.038;6.992;2022-12-07T06:51:10;27.90;;;23.30;;
19842;SDS011;10082;51.038;6.992;2022-12-07T06:53:37;27.53;;;24.73;;
19842;SDS011;10082;51.038;6.992;2022-12-07T06:56:04;27.37;;;24.47;;
19842;SDS011;10082;51.038;6.992;2022-12-07T06:58:31;27.63;;;24.53;;
19842;SDS011;10082;51.038;6.992;2022-12-07T07:00:58;28.47;;;24.73;;
19842;SDS011;10082;51.038;6.992;2022-12-07T07:03:25;28.27;;;25.23;;
19842;SDS011;10082;51.038;6.992;2022-12-07T07:05:52;30.40;;;25.70;;
19842;SDS011;10082;51.038;6.992;2022-12-07T07:08:22;29.57;;;26.47;;
19842;SDS011;10082;51.038;6.992;2022-12-07T07:10:49;30.17;;;26.93;;
19842;SDS011;10082;51.038;6.992;2022-12-07T07:13:16;29.97;;;26.77;;
19842;SDS011;10082;51.038;6.992;2022-12-07T07:15:43;30.03;;;26.80;;
19842;SDS011;10082;51.038;6.992;2022-12-07T07:18:10;31.73;;;28.50;;
19842;SDS011;10082;51.038;6.992;2022-12-07T07:20:38;29.97;;;26.93;;
19842;SDS011;10082;51.038;6.992;2022-12-07T07:23:04;30.40;;;27.27;;
19842;SDS011;10082;51.038;6.992;2022-12-07T07:25:33;28.47;;;25.50;;
19842;SDS011;10082;51.038;6.992;2022-12-07T07:28:01;29.77;;;26.47;;
19842;SDS011;10082;51.038;6.992;2022-12-07T07:30:28;29.47;;;26.37;;
19842;SDS011;10082;51.038;6.992;2022-12-07T07:32:56;29.73;;;26.57;;
19842;SDS011;10082;51.038;6.992;2022-12-07T07:35:23;30.03;;;26.90;;
19842;SDS011;10082;51.038;6.992;2022-12-07T07:37:50;33.10;;;26.77;;
19842;SDS011;10082;51.038;6.992;2022-12-07T07:40:17;34.13;;;28.00;;
19842;SDS011;10082;51.038;6.992;2022-12-07T07:42:48;30.63;;;27.53;;
19842;SDS011;10082;51.038;6.992;2022-12-07T07:45:15;29.63;;;26.53;;
19842;SDS011;10082;51.038;6.992;2022-12-07T07:47:43;32.03;;;26.80;;
19842;SDS011;10082;51.038;6.992;2022-12-07T07:50:10;30.17;;;25.83;;
19842;SDS011;10082;51.038;6.992;2022-12-07T07:52:37;27.20;;;24.40;;
19842;SDS011;10082;51.038;6.992;2022-12-07T07:55:04;27.20;;;24.30;;
19842;SDS011;10082;51.038;6.992;2022-12-07T07:57:33;27.00;;;24.20;;
19842;SDS011;10082;51.038;6.992;2022-12-07T08:00:03;27.33;;;23.90;;
19842;SDS011;10082;51.038;6.992;2022-12-07T08:02:37;26.30;;;22.80;;
19842;SDS011;10082;51.038;6.992;2022-12-07T08:05:05;24.30;;;21.80;;
19842;SDS011;10082;51.038;6.992;2022-12-07T08:07:33;25.27;;;22.67;;
19842;SDS011;10082;51.038;6.992;2022-12-07T08:09:59;24.20;;;21.60;;
19842;SDS011;10082;51.038;6.992;2022-12-07T08:12:27;25.30;;;21.87;;
19842;SDS011;10082;51.038;6.992;2022-12-07T08:14:53;24.37;;;21.77;;
19842;SDS011;10082;51.038;6.992;2022-12-07T08:17:22;25.47;;;22.87;;
19842;SDS011;10082;51.038;6.992;2022-12-07T08:19:49;23.70;;;21.27;;
19842;SDS011;10082;51.038;6.992;2022-12-07T08:22:16;27.10;;;22.23;;
19842;SDS011;10082;51.038;6.992;2022-12-07T08:24:44;25.80;;;23.10;;
19842;SDS011;10082;51.038;6.992;2022-12-07T08:29:51;27.47;;;23.37;;
19842;SDS011;10082;51.038;6.992;2022-12-07T08:32:18;26.03;;;23.43;;
19842;SDS011;10082;51.038;6.992;2022-12-07T08:34:47;26.87;;;23.90;;
19842;SDS011;10082;51.038;6.992;2022-12-07T08:37:15;25.10;;;22.60;;
19842;SDS011;10082;51.038;6.992;2022-12-07T08:39:42;27.33;;;24.10;;
19842;SDS011;10082;51.038;6.992;2022-12-07T08:42:09;26.33;;;22.60;;
19842;SDS011;10082;51.038;6.992;2022-12-07T08:44:35;25.53;;;22.83;;
19842;SDS011;10082;51.038;6.992;2022-12-07T08:47:03;28.97;;;23.10;;
19842;SDS011;10082;51.038;6.992;2022-12-07T08:49:36;25.13;;;22.57;;
19842;SDS011;10082;51.038;6.992;2022-12-07T08:52:06;23.73;;;21.33;;
19842;SDS011;10082;51.038;6.992;2022-12-07T08:54:33;23.27;;;20.87;;
19842;SDS011;10082;51.038;6.992;2022-12-07T08:57:02;23.70;;;21.40;;
19842;SDS011;10082;51.038;6.992;2022-12-07T08:59:31;24.03;;;21.57;;
19842;SDS011;10082;51.038;6.992;2022-12-07T09:02:01;23.67;;;18.83;;
19842;SDS011;10082;51.038;6.992;2022-12-07T09:04:28;23.13;;;19.57;;
19842;SDS011;10082;51.038;6.992;2022-12-07T09:06:55;19.93;;;18.00;;
19842;SDS011;10082;51.038;6.992;2022-12-07T09:09:24;20.17;;;18.17;;
19842;SDS011;10082;51.038;6.992;2022-12-07T09:11:51;19.67;;;17.70;;
19842;SDS011;10082;51.038;6.992;2022-12-07T09:14:17;20.53;;;18.47;;
19842;SDS011;10082;51.038;6.992;2022-12-07T09:16:44;19.17;;;17.37;;
19842;SDS011;10082;51.038;6.992;2022-12-07T09:19:11;18.97;;;17.13;;
19842;SDS011;10082;51.038;6.992;2022-12-07T09:21:38;20.07;;;17.40;;
19842;SDS011;10082;51.038;6.992;2022-12-07T09:24:06;19.20;;;17.30;;
19842;SDS011;10082;51.038;6.992;2022-12-07T09:26:35;19.50;;;17.50;;
19842;SDS011;10082;51.038;6.992;2022-12-07T09:29:04;18.43;;;16.43;;
19842;SDS011;10082;51.038;6.992;2022-12-07T09:31:31;18.20;;;16.43;;
19842;SDS011;10082;51.038;6.992;2022-12-07T09:33:59;19.50;;;16.63;;
19842;SDS011;10082;51.038;6.992;2022-12-07T09:36:26;17.90;;;16.03;;
19842;SDS011;10082;51.038;6.992;2022-12-07T09:38:54;18.73;;;16.83;;
19842;SDS011;10082;51.038;6.992;2022-12-07T09:41:22;17.70;;;15.93;;
19842;SDS011;10082;51.038;6.992;2022-12-07T09:43:51;17.37;;;15.67;;
19842;SDS011;10082;51.038;6.992;2022-12-07T09:46:19;17.33;;;15.57;;
19842;SDS011;10082;51.038;6.992;2022-12-07T09:48:47;17.57;;;15.97;;
19842;SDS011;10082;51.038;6.992;2022-12-07T09:51:17;16.70;;;15.10;;
19842;SDS011;10082;51.038;6.992;2022-12-07T09:53:46;16.27;;;14.57;;
19842;SDS011;10082;51.038;6.992;2022-12-07T09:56:14;16.27;;;14.77;;
19842;SDS011;10082;51.038;6.992;2022-12-07T09:58:43;16.60;;;15.00;;
19842;SDS011;10082;51.038;6.992;2022-12-07T10:01:13;21.03;;;18.93;;
19842;SDS011;10082;51.038;6.992;2022-12-07T10:03:42;18.90;;;17.10;;
19842;SDS011;10082;51.038;6.992;2022-12-07T10:06:15;18.50;;;16.50;;
19842;SDS011;10082;51.038;6.992;2022-12-07T10:08:42;15.37;;;13.90;;
19842;SDS011;10082;51.038;6.992;2022-12-07T10:11:09;16.73;;;15.13;;
19842;SDS011;10082;51.038;6.992;2022-12-07T10:13:38;17.87;;;16.20;;
19842;SDS011;10082;51.038;6.992;2022-12-07T10:16:06;16.87;;;15.17;;
19842;SDS011;10082;51.038;6.992;2022-12-07T10:18:55;12.57;;;11.27;;
19842;SDS011;10082;51.038;6.992;2022-12-07T10:21:23;14.97;;;12.27;;
19842;SDS011;10082;51.038;6.992;2022-12-07T10:24:00;13.03;;;11.73;;
19842;SDS011;10082;51.038;6.992;2022-12-07T10:26:35;12.43;;;10.93;;
19842;SDS011;10082;51.038;6.992;2022-12-07T10:29:13;13.37;;;11.73;;
19842;SDS011;10082;51.038;6.992;2022-12-07T10:31:42;12.47;;;11.27;;
19842;SDS011;10082;51.038;6.992;2022-12-07T10:34:21;12.10;;;10.13;;
19842;SDS011;10082;51.038;6.992;2022-12-07T10:36:50;12.73;;;11.07;;
19842;SDS011;10082;51.038;6.992;2022-12-07T10:39:18;13.60;;;11.10;;
19842;SDS011;10082;51.038;6.992;2022-12-07T10:41:53;11.87;;;10.67;;
19842;SDS011;10082;51.038;6.992;2022-12-07T10:44:22;12.20;;;10.07;;
19842;SDS011;10082;51.038;6.992;2022-12-07T10:46:56;10.77;;;9.53;;
19842;SDS011;10082;51.038;6.992;2022-12-07T10:52:35;11.37;;;9.27;;
19842;SDS011;10082;51.038;6.992;2022-12-07T10:55:14;9.80;;;8.80;;
19842;SDS011;10082;51.038;6.992;2022-12-07T10:57:51;9.63;;;7.67;;
19842;SDS011;10082;51.038;6.992;2022-12-07T11:00:42;11.67;;;8.43;;
19842;SDS011;10082;51.038;6.992;2022-12-07T11:03:21;9.47;;;7.97;;
19842;SDS011;10082;51.038;6.992;2022-12-07T11:05:59;10.53;;;7.97;;
19842;SDS011;10082;51.038;6.992;2022-12-07T11:08:44;10.33;;;8.20;;
19842;SDS011;10082;51.038;6.992;2022-12-07T11:11:21;9.73;;;7.70;;
19842;SDS011;10082;51.038;6.992;2022-12-07T11:13:58;9.20;;;7.70;;
19842;SDS011;10082;51.038;6.992;2022-12-07T11:16:48;10.63;;;8.07;;
19842;SDS011;10082;51.038;6.992;2022-12-07T11:19:28;11.37;;;7.50;;
19842;SDS011;10082;51.038;6.992;2022-12-07T11:22:13;10.30;;;8.00;;
19842;SDS011;10082;51.038;6.992;2022-12-07T11:24:47;9.80;;;8.00;;
19842;SDS011;10082;51.038;6.992;2022-12-07T11:27:22;10.37;;;8.10;;
19842;SDS011;10082;51.038;6.992;2022-12-07T11:30:02;11.47;;;8.47;;
19842;SDS011;10082;51.038;6.992;2022-12-07T11:32:41;8.83;;;7.70;;
19842;SDS011;10082;51.038;6.992;2022-12-07T11:35:18;10.10;;;7.97;;
19842;SDS011;10082;51.038;6.992;2022-12-07T11:37:56;12.03;;;8.27;;
19842;SDS011;10082;51.038;6.992;2022-12-07T11:40:28;13.10;;;9.43;;
19842;SDS011;10082;51.038;6.992;2022-12-07T11:43:01;11.20;;;8.63;;
19842;SDS011;10082;51.038;6.992;2022-12-07T11:45:34;10.90;;;8.43;;
19842;SDS011;10082;51.038;6.992;2022-12-07T11:48:09;13.23;;;8.40;;
19842;SDS011;10082;51.038;6.992;2022-12-07T11:50:43;10.43;;;7.70;;
19842;SDS011;10082;51.038;6.992;2022-12-07T11:53:16;10.30;;;8.70;;
19842;SDS011;10082;51.038;6.992;2022-12-07T11:55:46;10.20;;;7.33;;
19842;SDS011;10082;51.038;6.992;2022-12-07T11:58:23;13.10;;;8.53;;
19842;SDS011;10082;51.038;6.992;2022-12-07T12:01:08;11.80;;;8.77;;
19842;SDS011;10082;51.038;6.992;2022-12-07T12:03:42;10.17;;;7.60;;
19842;SDS011;10082;51.038;6.992;2022-12-07T12:06:12;8.03;;;7.23;;
19842;SDS011;10082;51.038;6.992;2022-12-07T12:08:43;8.47;;;7.63;;
19842;SDS011;10082;51.038;6.992;2022-12-07T12:11:17;12.20;;;7.47;;
19842;SDS011;10082;51.038;6.992;2022-12-07T12:14:14;9.23;;;7.30;;
19842;SDS011;10082;51.038;6.992;2022-12-07T12:16:57;10.83;;;7.20;;
19842;SDS011;10082;51.038;6.992;2022-12-07T12:19:37;8.07;;;7.03;;
19842;SDS011;10082;51.038;6.992;2022-12-07T12:22:10;9.60;;;6.93;;
19842;SDS011;10082;51.038;6.992;2022-12-07T12:24:44;9.23;;;7.33;;
19842;SDS011;10082;51.038;6.992;2022-12-07T12:29:52;10.43;;;7.20;;
19842;SDS011;10082;51.038;6.992;2022-12-07T12:32:21;8.90;;;7.00;;
19842;SDS011;10082;51.038;6.992;2022-12-07T12:34:59;8.93;;;7.20;;
19842;SDS011;10082;51.038;6.992;2022-12-07T12:37:39;9.65;;;7.72;;
19842;SDS011;10082;51.038;6.992;2022-12-07T12:46:36;11.40;;;8.20;;
19842;SDS011;10082;51.038;6.992;2022-12-07T12:58:29;11.20;;;7.67;;
19842;SDS011;10082;51.038;6.992;2022-12-07T13:03:59;9.73;;;8.57;;
19842;SDS011;10082;51.038;6.992;2022-12-07T13:06:32;11.50;;;8.23;;
19842;SDS011;10082;51.038;6.992;2022-12-07T13:09:03;10.97;;;7.70;;
19842;SDS011;10082;51.038;6.992;2022-12-07T13:11:33;10.63;;;8.40;;
19842;SDS011;10082;51.038;6.992;2022-12-07T13:17:08;13.27;;;7.93;;
19842;SDS011;10082;51.038;6.992;2022-12-07T13:22:36;10.70;;;7.70;;
19842;SDS011;10082;51.038;6.992;2022-12-07T13:25:08;9.13;;;6.37;;
19842;SDS011;10082;51.038;6.992;2022-12-07T13:27:41;9.10;;;6.20;;
19842;SDS011;10082;51.038;6.992;2022-12-07T13:30:14;9.57;;;6.53;;
19842;SDS011;10082;51.038;6.992;2022-12-07T13:32:43;7.93;;;6.50;;
19842;SDS011;10082;51.038;6.992;2022-12-07T13:35:27;11.13;;;6.80;;
19842;SDS011;10082;51.038;6.992;2022-12-07T13:37:55;8.80;;;6.30;;
19842;SDS011;10082;51.038;6.992;2022-12-07T13:40:23;8.87;;;6.43;;
19842;SDS011;10082;51.038;6.992;2022-12-07T13:42:58;8.67;;;5.90;;
19842;SDS011;10082;51.038;6.992;2022-12-07T13:45:26;11.87;;;6.90;;
19842;SDS011;10082;51.038;6.992;2022-12-07T13:48:13;9.10;;;6.80;;
19842;SDS011;10082;51.038;6.992;2022-12-07T13:50:48;9.47;;;6.90;;
19842;SDS011;10082;51.038;6.992;2022-12-07T13:53:20;10.37;;;6.50;;
19842;SDS011;10082;51.038;6.992;2022-12-07T13:55:47;11.43;;;6.97;;
19842;SDS011;10082;51.038;6.992;2022-12-07T13:58:16;9.17;;;6.20;;
19842;SDS011;10082;51.038;6.992;2022-12-07T14:00:43;8.97;;;6.87;;
19842;SDS011;10082;51.038;6.992;2022-12-07T14:03:27;12.07;;;7.17;;
19842;SDS011;10082;51.038;6.992;2022-12-07T14:06:03;9.07;;;6.90;;
19842;SDS011;10082;51.038;6.992;2022-12-07T14:08:43;10.03;;;6.70;;
19842;SDS011;10082;51.038;6.992;2022-12-07T14:11:13;8.27;;;6.17;;
19842;SDS011;10082;51.038;6.992;2022-12-07T14:13:52;10.40;;;6.20;;
19842;SDS011;10082;51.038;6.992;2022-12-07T14:16:25;8.90;;;6.83;;
19842;SDS011;10082;51.038;6.992;2022-12-07T14:18:55;7.63;;;6.33;;
19842;SDS011;10082;51.038;6.992;2022-12-07T14:21:23;11.50;;;6.47;;
19842;SDS011;10082;51.038;6.992;2022-12-07T14:24:02;8.27;;;6.77;;
19842;SDS011;10082;51.038;6.992;2022-12-07T14:26:36;9.43;;;6.43;;
19842;SDS011;10082;51.038;6.992;2022-12-07T14:29:21;9.07;;;6.33;;
19842;SDS011;10082;51.038;6.992;2022-12-07T14:31:56;10.37;;;6.73;;
19842;SDS011;10082;51.038;6.992;2022-12-07T14:34:25;9.60;;;6.10;;
19842;SDS011;10082;51.038;6.992;2022-12-07T14:36:52;10.53;;;6.97;;
19842;SDS011;10082;51.038;6.992;2022-12-07T14:39:19;9.87;;;7.30;;
19842;SDS011;10082;51.038;6.992;2022-12-07T14:41:46;11.03;;;7.90;;
19842;SDS011;10082;51.038;6.992;2022-12-07T14:44:21;10.87;;;6.80;;
19842;SDS011;10082;51.038;6.992;2022-12-07T14:46:49;14.17;;;7.07;;
19842;SDS011;10082;51.038;6.992;2022-12-07T14:49:17;9.53;;;7.13;;
19842;SDS011;10082;51.038;6.992;2022-12-07T14:51:45;10.23;;;7.40;;
19842;SDS011;10082;51.038;6.992;2022-12-07T14:54:15;9.27;;;7.07;;
19842;SDS011;10082;51.038;6.992;2022-12-07T14:56:44;11.40;;;7.03;;
19842;SDS011;10082;51.038;6.992;2022-12-07T14:59:15;8.97;;;7.07;;
19842;SDS011;10082;51.038;6.992;2022-12-07T15:01:45;12.45;;;8.90;;
19842;SDS011;10082;51.038;6.992;2022-12-07T15:04:12;13.17;;;8.93;;
19842;SDS011;10082;51.038;6.992;2022-12-07T15:06:39;12.53;;;7.97;;
19842;SDS011;10082;51.038;6.992;2022-12-07T15:09:09;11.53;;;8.47;;
19842;SDS011;10082;51.038;6.992;2022-12-07T15:11:37;12.33;;;9.23;;
19842;SDS011;10082;51.038;6.992;2022-12-07T15:14:04;13.27;;;9.10;;
19842;SDS011;10082;51.038;6.992;2022-12-07T15:16:38;10.37;;;8.50;;
19842;SDS011;10082;51.038;6.992;2022-12-07T15:19:10;10.47;;;8.73;;
19842;SDS011;10082;51.038;6.992;2022-12-07T15:21:39;11.43;;;9.10;;